Time;durP1;ratioP1;P1;durP2;ratioP2;P2;SDS_P1;SDS_P2;PMS_P1;PMS_P2;Temp;Humidity;BMP_temperature;BMP_pressure;BME280_temperature;BME280_humidity;BME280_pressure;Samples;Min_cycle;Max_cycle;Signal;HPM_P1;HPM_P2
2021/05/01 00:00:53;;;;;;;35.05;30.00;;;9.80;99.90;;;;;;2084631;28;20018;-68
2021/05/01 00:01:54;;;;;;;30.38;27.15;;;9.80;99.90;;;;;;2080234;28;20022;-67
2021/05/01 00:02:55;;;;;;;34.50;29.70;;;9.80;99.90;;;;;;2086789;28;20025;-68
2021/05/01 00:03:55;;;;;;;30.92;27.63;;;9.80;99.90;;;;;;2087853;28;20029;-67
2021/05/01 00:04:56;;;;;;;34.95;29.00;;;9.80;99.90;;;;;;2088102;28;20029;-68
2021/05/01 00:05:57;;;;;;;31.88;26.92;;;9.80;99.90;;;;;;2087861;28;20024;-67
2021/05/01 00:06:57;;;;;;;35.17;30.60;;;9.80;99.90;;;;;;2084643;28;20021;-68
2021/05/01 00:07:58;;;;;;;35.30;29.65;;;9.80;99.90;;;;;;2088309;28;20033;-67
2021/05/01 00:08:58;;;;;;;35.25;31.33;;;9.90;99.90;;;;;;2088025;28;20024;-67
2021/05/01 00:09:59;;;;;;;33.63;30.02;;;9.90;99.90;;;;;;2087939;28;20512;-68
2021/05/01 00:11:02;;;;;;;37.40;32.92;;;9.80;99.90;;;;;;2087503;28;20380;-67
2021/05/01 00:12:03;;;;;;;38.80;32.75;;;9.90;99.90;;;;;;2087759;28;20017;-68
2021/05/01 00:13:09;;;;;;;36.65;32.75;;;9.90;99.90;;;;;;2087420;28;20032;-68
2021/05/01 00:14:10;;;;;;;37.95;33.25;;;9.90;99.90;;;;;;2087801;28;20108;-68
2021/05/01 00:15:13;;;;;;;36.70;31.52;;;9.90;99.90;;;;;;2085399;28;20029;-68
2021/05/01 00:16:14;;;;;;;39.38;33.03;;;9.80;99.90;;;;;;2079803;28;20052;-68
2021/05/01 00:17:17;;;;;;;36.53;32.65;;;9.90;99.90;;;;;;2080024;28;20030;-68
2021/05/01 00:18:18;;;;;;;37.63;32.65;;;9.90;99.90;;;;;;2079592;28;20124;-68
2021/05/01 00:19:19;;;;;;;37.45;33.17;;;9.90;99.90;;;;;;2080121;28;20022;-68
2021/05/01 00:20:20;;;;;;;38.70;32.72;;;9.90;99.90;;;;;;2079304;28;20084;-68
2021/05/01 00:21:20;;;;;;;37.15;33.03;;;9.90;99.90;;;;;;2079638;28;20022;-68
2021/05/01 00:22:21;;;;;;;36.17;32.28;;;9.90;99.90;;;;;;2078810;28;20062;-68
2021/05/01 00:23:22;;;;;;;35.25;30.35;;;9.90;99.90;;;;;;2080031;28;20029;-68
2021/05/01 00:24:31;;;;;;;34.97;31.05;;;9.90;99.90;;;;;;2079516;28;20021;-68
2021/05/01 00:25:32;;;;;;;37.53;33.30;;;9.90;99.90;;;;;;2079736;28;20033;-68
2021/05/01 00:26:33;;;;;;;38.17;32.45;;;9.90;99.90;;;;;;2079677;28;20029;-68
2021/05/01 00:27:33;;;;;;;44.22;36.40;;;9.90;99.90;;;;;;2079276;28;20022;-68
2021/05/01 00:28:34;;;;;;;41.80;35.95;;;9.90;99.90;;;;;;2079058;28;20029;-67
2021/05/01 00:29:35;;;;;;;41.00;36.60;;;10.00;99.90;;;;;;2073900;28;20033;-68
2021/05/01 00:30:35;;;;;;;41.55;35.42;;;10.00;99.90;;;;;;2087853;28;20335;-68
2021/05/01 00:31:36;;;;;;;38.72;34.38;;;9.90;99.90;;;;;;2087705;28;20036;-68
2021/05/01 00:32:37;;;;;;;41.42;34.38;;;9.90;99.90;;;;;;2087511;28;20032;-68
2021/05/01 00:33:38;;;;;;;40.20;35.63;;;10.00;99.90;;;;;;2087616;28;20518;-68
2021/05/01 00:34:39;;;;;;;37.38;33.33;;;10.00;99.90;;;;;;2080798;28;20075;-68
2021/05/01 00:35:40;;;;;;;40.60;34.85;;;10.00;99.90;;;;;;2079570;28;20029;-68
2021/05/01 00:36:40;;;;;;;39.80;33.90;;;10.00;99.90;;;;;;2084404;28;20805;-68
2021/05/01 00:37:41;;;;;;;45.92;39.00;;;10.00;99.90;;;;;;2087965;28;20033;-68
2021/05/01 00:38:44;;;;;;;43.53;35.85;;;10.00;99.90;;;;;;2086714;28;20411;-68
2021/05/01 00:39:44;;;;;;;40.22;35.17;;;10.00;99.90;;;;;;2083645;28;20088;-68
2021/05/01 00:40:45;;;;;;;40.03;35.28;;;10.00;99.90;;;;;;2079812;28;20044;-68
2021/05/01 00:41:46;;;;;;;40.08;35.70;;;10.00;99.90;;;;;;2086329;28;20071;-68
2021/05/01 00:42:46;;;;;;;42.10;35.95;;;10.00;99.90;;;;;;2087264;28;20036;-68
2021/05/01 00:43:47;;;;;;;42.22;34.67;;;10.00;99.90;;;;;;2086595;28;20029;-68
2021/05/01 00:44:48;;;;;;;41.22;36.83;;;10.00;99.90;;;;;;2079293;28;20029;-68
2021/05/01 00:45:49;;;;;;;38.03;34.05;;;10.00;99.90;;;;;;2079616;28;20013;-68
2021/05/01 00:46:49;;;;;;;37.72;33.58;;;10.00;99.90;;;;;;2079629;28;20465;-68
2021/05/01 00:47:50;;;;;;;40.13;35.67;;;10.00;99.90;;;;;;2079270;28;20060;-68
2021/05/01 00:48:50;;;;;;;41.05;34.22;;;10.00;99.90;;;;;;2079530;28;20029;-68
2021/05/01 00:49:51;;;;;;;39.60;35.38;;;10.00;99.90;;;;;;2086258;28;20029;-68
2021/05/01 00:50:51;;;;;;;44.97;36.30;;;10.10;99.90;;;;;;2087715;28;20438;-68
2021/05/01 00:51:52;;;;;;;38.63;34.47;;;10.10;99.90;;;;;;2087742;28;20033;-68
2021/05/01 00:52:53;;;;;;;41.67;34.08;;;10.10;99.90;;;;;;2086607;28;20029;-68
2021/05/01 00:53:53;;;;;;;40.10;35.20;;;10.10;99.90;;;;;;2087351;28;20162;-68
2021/05/01 00:54:54;;;;;;;39.88;35.58;;;10.10;99.90;;;;;;2087607;28;20115;-68
2021/05/01 00:55:55;;;;;;;39.03;34.33;;;10.10;99.90;;;;;;2084710;28;20465;-68
2021/05/01 00:56:57;;;;;;;39.95;35.65;;;10.10;99.90;;;;;;2079682;28;20039;-68
2021/05/01 00:57:58;;;;;;;40.55;33.95;;;10.10;99.90;;;;;;2079492;28;20449;-68
2021/05/01 00:58:59;;;;;;;39.55;35.22;;;10.10;99.90;;;;;;2080249;28;20017;-68
2021/05/01 01:00:00;;;;;;;38.22;34.03;;;10.10;99.90;;;;;;2086805;28;20530;-68
2021/05/01 01:01:34;;;;;;;38.85;34.75;;;10.10;99.90;;;;;;2087890;28;20663;-68
2021/05/01 01:02:28;;;;;;;41.83;35.33;;;10.10;99.90;;;;;;2085788;28;20029;-68
2021/05/01 01:03:30;;;;;;;38.83;34.63;;;10.10;99.90;;;;;;2087583;28;20029;-68
2021/05/01 01:04:31;;;;;;;40.10;35.72;;;10.10;99.90;;;;;;2087626;28;20047;-68
2021/05/01 01:05:32;;;;;;;40.47;36.08;;;10.10;99.90;;;;;;2088735;28;20963;-68
2021/05/01 01:06:32;;;;;;;40.03;35.83;;;10.10;99.90;;;;;;2088921;28;20044;-68
2021/05/01 01:07:33;;;;;;;39.50;35.30;;;10.20;99.90;;;;;;2086731;28;20142;-68
2021/05/01 01:08:33;;;;;;;41.10;35.90;;;10.20;99.90;;;;;;2089530;28;20109;-68
2021/05/01 01:09:34;;;;;;;39.30;34.63;;;10.20;99.90;;;;;;2089621;28;20978;-68
2021/05/01 01:10:35;;;;;;;40.40;36.05;;;10.20;99.90;;;;;;2089389;28;20072;-68
2021/05/01 01:11:36;;;;;;;41.72;37.05;;;10.20;99.90;;;;;;2088716;28;20453;-68
2021/05/01 01:12:36;;;;;;;40.17;35.83;;;10.20;99.90;;;;;;2078739;28;20037;-68
2021/05/01 01:13:37;;;;;;;40.40;36.00;;;10.20;99.90;;;;;;2080553;28;20033;-68
2021/05/01 01:14:38;;;;;;;38.90;34.70;;;10.20;99.90;;;;;;2074358;28;20033;-68
2021/05/01 01:15:39;;;;;;;39.78;35.47;;;10.20;99.90;;;;;;2081304;28;20053;-68
2021/05/01 01:16:43;;;;;;;42.50;36.67;;;10.20;99.90;;;;;;2081201;28;20081;-68
2021/05/01 01:17:44;;;;;;;42.85;36.78;;;10.20;99.90;;;;;;2081343;28;20048;-68
2021/05/01 01:18:44;;;;;;;42.20;36.58;;;10.20;99.90;;;;;;2080442;28;20034;-68
2021/05/01 01:19:45;;;;;;;41.30;36.85;;;10.20;99.90;;;;;;2080715;28;20120;-68
2021/05/01 01:20:46;;;;;;;40.80;36.38;;;10.20;99.90;;;;;;2080316;28;20034;-68
2021/05/01 01:21:48;;;;;;;41.10;36.63;;;10.20;99.90;;;;;;2081370;28;20029;-68
2021/05/01 01:22:49;;;;;;;43.05;37.30;;;10.20;99.90;;;;;;2080243;28;20112;-68
2021/05/01 01:23:50;;;;;;;40.80;36.47;;;10.20;99.90;;;;;;2081106;28;20092;-68
2021/05/01 01:24:50;;;;;;;43.05;38.42;;;10.20;99.90;;;;;;2080829;28;20026;-68
2021/05/01 01:25:51;;;;;;;41.22;36.13;;;10.20;99.90;;;;;;2081639;28;20026;-68
2021/05/01 01:26:52;;;;;;;40.47;36.10;;;10.20;99.90;;;;;;2080889;28;20101;-68
2021/05/01 01:27:52;;;;;;;42.38;37.80;;;10.20;99.90;;;;;;2079646;28;20017;-68
2021/05/01 01:28:53;;;;;;;40.78;36.38;;;10.20;99.90;;;;;;2079111;28;20481;-68
2021/05/01 01:29:54;;;;;;;45.13;38.47;;;10.20;99.90;;;;;;2081932;28;20031;-68
2021/05/01 01:30:54;;;;;;;44.00;37.75;;;10.20;99.90;;;;;;2086779;28;20029;-68
2021/05/01 01:31:55;;;;;;;43.88;38.72;;;10.20;99.90;;;;;;2083609;28;20095;-68
2021/05/01 01:33:01;;;;;;;38.83;34.75;;;10.20;99.90;;;;;;2079561;28;20528;-68
2021/05/01 01:34:03;;;;;;;42.03;36.85;;;10.20;99.90;;;;;;2079972;28;20105;-68
2021/05/01 01:35:05;;;;;;;41.80;37.30;;;10.20;99.90;;;;;;2072240;28;20029;-68
2021/05/01 01:36:07;;;;;;;44.25;37.88;;;10.20;99.90;;;;;;2075189;28;20045;-68
2021/05/01 01:37:08;;;;;;;43.85;37.13;;;10.20;99.90;;;;;;2086202;28;20109;-68
2021/05/01 01:38:08;;;;;;;42.47;37.97;;;10.30;99.90;;;;;;2081085;28;20033;-68
2021/05/01 01:39:09;;;;;;;43.88;39.08;;;10.20;99.90;;;;;;2081075;28;20664;-68
2021/05/01 01:40:12;;;;;;;42.10;37.13;;;10.30;99.90;;;;;;2074011;28;20022;-69
2021/05/01 01:41:12;;;;;;;45.55;40.60;;;10.30;99.90;;;;;;2074675;28;20049;-68
2021/05/01 01:42:13;;;;;;;44.28;39.25;;;10.30;99.90;;;;;;2080569;28;20018;-68
2021/05/01 01:43:13;;;;;;;42.63;37.80;;;10.30;99.90;;;;;;2080868;28;20025;-68
2021/05/01 01:44:14;;;;;;;43.67;38.85;;;10.30;99.90;;;;;;2079194;28;20388;-68
2021/05/01 01:45:18;;;;;;;43.15;38.45;;;10.30;99.90;;;;;;2078675;28;20831;-68
2021/05/01 01:46:18;;;;;;;47.03;38.67;;;10.30;99.90;;;;;;2084987;28;20044;-68
2021/05/01 01:47:19;;;;;;;43.55;38.80;;;10.30;99.90;;;;;;2084698;28;20014;-68
2021/05/01 01:48:20;;;;;;;45.85;40.83;;;10.30;99.90;;;;;;2080926;28;20449;-68
2021/05/01 01:49:20;;;;;;;44.45;39.75;;;10.30;99.90;;;;;;2083329;28;20428;-68
2021/05/01 01:50:21;;;;;;;45.53;40.15;;;10.30;99.90;;;;;;2084495;28;20427;-68
2021/05/01 01:51:22;;;;;;;46.30;40.22;;;10.30;99.90;;;;;;2080826;28;20376;-68
2021/05/01 01:52:22;;;;;;;46.28;40.35;;;10.30;99.90;;;;;;2080667;28;20026;-68
2021/05/01 01:53:24;;;;;;;46.25;40.97;;;10.30;99.90;;;;;;2089442;28;20464;-68
2021/05/01 01:54:24;;;;;;;50.45;42.22;;;10.30;99.90;;;;;;2089017;28;20873;-68
2021/05/01 01:55:25;;;;;;;49.08;42.60;;;10.30;99.90;;;;;;2089159;28;20595;-68
2021/05/01 01:56:27;;;;;;;48.20;41.67;;;10.30;99.90;;;;;;2081642;28;20029;-68
2021/05/01 01:57:27;;;;;;;48.10;41.92;;;10.30;99.90;;;;;;2080474;28;20120;-68
2021/05/01 01:58:28;;;;;;;48.90;41.42;;;10.30;99.90;;;;;;2080566;28;20052;-68
2021/05/01 01:59:29;;;;;;;47.97;41.65;;;10.30;99.90;;;;;;2080740;28;20030;-68
2021/05/01 02:00:31;;;;;;;49.72;42.78;;;10.30;99.90;;;;;;2081419;28;20026;-68
2021/05/01 02:01:33;;;;;;;47.95;42.70;;;10.30;99.90;;;;;;2090635;28;20433;-68
2021/05/01 02:02:34;;;;;;;50.70;44.67;;;10.30;99.90;;;;;;2089338;28;20061;-68
2021/05/01 02:03:35;;;;;;;54.40;45.75;;;10.40;99.90;;;;;;2082508;28;20021;-68
2021/05/01 02:04:35;;;;;;;51.13;43.30;;;10.30;99.90;;;;;;2081866;28;20515;-68
2021/05/01 02:05:36;;;;;;;51.63;41.85;;;10.30;99.90;;;;;;2082192;28;20029;-68
2021/05/01 02:06:36;;;;;;;48.25;42.97;;;10.40;99.90;;;;;;2082190;28;20049;-68
2021/05/01 02:07:37;;;;;;;52.17;45.70;;;10.40;99.90;;;;;;2088810;28;20104;-68
2021/05/01 02:08:38;;;;;;;51.80;44.17;;;10.40;99.90;;;;;;2088850;28;20425;-68
2021/05/01 02:09:38;;;;;;;54.05;45.90;;;10.40;99.90;;;;;;2082274;28;20025;-68
2021/05/01 02:10:40;;;;;;;52.05;43.80;;;10.40;99.90;;;;;;2081349;28;20053;-68
2021/05/01 02:11:41;;;;;;;54.50;46.95;;;10.40;99.90;;;;;;2081509;28;20388;-68
2021/05/01 02:12:42;;;;;;;50.33;44.88;;;10.40;99.90;;;;;;2080871;28;20033;-68
2021/05/01 02:13:43;;;;;;;51.22;45.58;;;10.40;99.90;;;;;;2077379;28;20464;-68
2021/05/01 02:14:44;;;;;;;53.10;46.22;;;10.40;99.90;;;;;;2082202;28;20500;-68
2021/05/01 02:15:45;;;;;;;51.72;43.50;;;10.40;99.90;;;;;;2082373;28;20096;-68
2021/05/01 02:16:45;;;;;;;56.40;47.72;;;10.40;99.90;;;;;;2081184;28;20045;-68
2021/05/01 02:17:49;;;;;;;50.78;45.22;;;10.40;99.90;;;;;;2081787;28;20064;-68
2021/05/01 02:18:49;;;;;;;50.42;44.40;;;10.50;99.90;;;;;;2082074;28;20096;-68
2021/05/01 02:19:50;;;;;;;56.58;47.78;;;10.40;99.90;;;;;;2082146;28;20034;-68
2021/05/01 02:20:50;;;;;;;56.15;46.55;;;10.40;99.90;;;;;;2082034;28;20707;-68
2021/05/01 02:21:51;;;;;;;57.60;48.25;;;10.40;99.90;;;;;;2082144;28;20100;-68
2021/05/01 02:22:52;;;;;;;60.28;49.20;;;10.50;99.90;;;;;;2081183;28;20116;-68
2021/05/01 02:23:52;;;;;;;57.20;47.67;;;10.50;99.90;;;;;;2082090;28;20025;-68
2021/05/01 02:24:53;;;;;;;59.75;50.63;;;10.50;99.90;;;;;;2081811;28;20417;-68
2021/05/01 02:25:53;;;;;;;62.60;49.65;;;10.50;99.90;;;;;;2082361;28;20030;-68
2021/05/01 02:26:54;;;;;;;59.70;49.50;;;10.50;99.90;;;;;;2081983;28;20049;-68
2021/05/01 02:27:55;;;;;;;56.72;48.15;;;10.50;99.90;;;;;;2081913;28;20034;-68
2021/05/01 02:28:55;;;;;;;58.97;47.65;;;10.50;99.90;;;;;;2089123;28;20039;-68
2021/05/01 02:29:56;;;;;;;60.72;51.10;;;10.50;99.90;;;;;;2082096;28;20045;-68
2021/05/01 02:30:57;;;;;;;61.17;50.70;;;10.50;99.90;;;;;;2082033;28;20017;-68
2021/05/01 02:31:58;;;;;;;60.80;49.95;;;10.50;99.90;;;;;;2081841;28;20021;-68
2021/05/01 02:32:59;;;;;;;56.55;47.95;;;10.50;99.90;;;;;;2081306;28;20029;-68
2021/05/01 02:34:00;;;;;;;62.63;49.70;;;10.50;99.90;;;;;;2081966;28;20109;-68
2021/05/01 02:35:00;;;;;;;62.63;50.80;;;10.50;99.90;;;;;;2082058;28;20021;-68
2021/05/01 02:36:01;;;;;;;61.63;50.15;;;10.50;99.90;;;;;;2081914;28;20028;-68
2021/05/01 02:37:02;;;;;;;58.50;49.53;;;10.50;99.90;;;;;;2082047;28;20096;-68
2021/05/01 02:38:03;;;;;;;60.22;50.28;;;10.50;99.90;;;;;;2081944;28;20029;-68
2021/05/01 02:39:05;;;;;;;60.13;51.63;;;10.40;99.90;;;;;;2081953;28;20026;-68
2021/05/01 02:40:07;;;;;;;63.28;51.78;;;10.40;99.90;;;;;;2075537;28;20120;-68
2021/05/01 02:41:08;;;;;;;58.03;49.97;;;10.40;99.90;;;;;;2076652;28;20060;-68
2021/05/01 02:42:08;;;;;;;62.10;50.90;;;10.40;99.90;;;;;;2082795;28;20064;-68
2021/05/01 02:43:10;;;;;;;55.63;45.72;;;10.40;99.90;;;;;;2081719;28;20040;-68
2021/05/01 02:44:11;;;;;;;59.53;49.80;;;10.40;99.90;;;;;;2081607;28;20026;-68
2021/05/01 02:45:14;;;;;;;58.15;48.70;;;10.40;99.90;;;;;;2081974;28;20073;-68
2021/05/01 02:46:15;;;;;;;60.28;48.83;;;10.40;99.90;;;;;;2081829;28;20013;-68
2021/05/01 02:47:16;;;;;;;57.75;47.85;;;10.40;99.90;;;;;;2082141;28;20039;-68
2021/05/01 02:48:17;;;;;;;59.20;50.13;;;10.40;99.90;;;;;;2081893;28;20044;-68
2021/05/01 02:49:18;;;;;;;57.97;48.13;;;10.40;99.90;;;;;;2081999;28;20032;-68
2021/05/01 02:50:19;;;;;;;59.35;48.47;;;10.40;99.90;;;;;;2081707;28;20160;-68
2021/05/01 02:51:19;;;;;;;56.05;46.67;;;10.40;99.90;;;;;;2081963;28;20025;-68
2021/05/01 02:52:20;;;;;;;56.40;45.50;;;10.40;99.90;;;;;;2081266;28;20504;-68
2021/05/01 02:53:20;;;;;;;55.13;45.83;;;10.40;99.90;;;;;;2081781;28;20021;-68
2021/05/01 02:54:21;;;;;;;58.33;48.20;;;10.40;99.90;;;;;;2081538;28;20434;-68
2021/05/01 02:55:22;;;;;;;55.17;46.10;;;10.40;99.90;;;;;;2086154;28;20028;-68
2021/05/01 02:56:22;;;;;;;54.67;45.13;;;10.40;99.90;;;;;;2083087;28;20025;-68
2021/05/01 02:57:23;;;;;;;54.28;46.17;;;10.40;99.90;;;;;;2082665;28;20076;-68
2021/05/01 02:58:23;;;;;;;52.58;45.90;;;10.40;99.90;;;;;;2090074;28;20103;-68
2021/05/01 02:59:24;;;;;;;54.53;46.85;;;10.40;99.90;;;;;;2090114;28;20211;-68
2021/05/01 03:00:26;;;;;;;53.35;46.05;;;10.40;99.90;;;;;;2090050;28;20025;-68
2021/05/01 03:01:27;;;;;;;57.13;46.35;;;10.40;99.90;;;;;;2089943;28;20469;-68
2021/05/01 03:02:28;;;;;;;57.35;47.10;;;10.40;99.90;;;;;;2088096;28;20814;-68
2021/05/01 03:03:28;;;;;;;52.97;42.05;;;10.40;99.90;;;;;;2088955;28;20408;-68
2021/05/01 03:04:29;;;;;;;55.47;47.53;;;10.40;99.90;;;;;;2085865;28;20029;-68
2021/05/01 03:05:30;;;;;;;53.90;45.58;;;10.40;99.90;;;;;;2080795;28;20667;-68
2021/05/01 03:06:30;;;;;;;52.83;44.65;;;10.40;99.90;;;;;;2080892;28;20125;-68
2021/05/01 03:07:31;;;;;;;52.08;45.03;;;10.40;99.90;;;;;;2085418;28;20028;-68
2021/05/01 03:08:31;;;;;;;51.35;45.17;;;10.40;99.90;;;;;;2089028;28;20049;-68
2021/05/01 03:09:32;;;;;;;47.95;40.08;;;10.40;99.90;;;;;;2088923;28;20060;-68
2021/05/01 03:10:32;;;;;;;47.38;38.65;;;10.40;99.90;;;;;;2085653;28;20025;-68
2021/05/01 03:11:33;;;;;;;54.45;45.28;;;10.40;99.90;;;;;;2080725;28;20059;-68
2021/05/01 03:12:34;;;;;;;50.50;42.92;;;10.40;99.90;;;;;;2080187;28;20017;-68
2021/05/01 03:13:34;;;;;;;51.13;43.50;;;10.40;99.90;;;;;;2080821;28;20548;-68
2021/05/01 03:14:35;;;;;;;50.13;43.13;;;10.40;99.90;;;;;;2080980;28;20026;-68
2021/05/01 03:15:35;;;;;;;49.33;40.85;;;10.40;99.90;;;;;;2080474;28;20503;-68
2021/05/01 03:16:36;;;;;;;51.85;46.20;;;10.40;99.90;;;;;;2080872;28;20519;-68
2021/05/01 03:17:37;;;;;;;51.90;44.50;;;10.40;99.90;;;;;;2080443;28;20033;-68
2021/05/01 03:18:37;;;;;;;50.15;43.22;;;10.40;99.90;;;;;;2081017;28;20029;-68
2021/05/01 03:19:38;;;;;;;52.15;43.08;;;10.30;99.90;;;;;;2080645;28;20109;-68
2021/05/01 03:20:38;;;;;;;46.80;41.85;;;10.30;99.90;;;;;;2080688;28;20028;-68
2021/05/01 03:21:39;;;;;;;49.45;41.83;;;10.30;99.90;;;;;;2080661;28;20031;-68
2021/05/01 03:22:40;;;;;;;47.88;42.55;;;10.30;99.90;;;;;;2079811;28;20029;-68
2021/05/01 03:23:41;;;;;;;52.70;44.05;;;10.30;99.90;;;;;;2079386;28;20404;-68
2021/05/01 03:24:42;;;;;;;49.78;43.58;;;10.30;99.90;;;;;;2080004;28;20038;-68
2021/05/01 03:25:42;;;;;;;51.60;41.58;;;10.30;99.90;;;;;;2080390;28;20057;-68
2021/05/01 03:26:43;;;;;;;46.88;41.80;;;10.20;99.90;;;;;;2080401;28;20029;-68
2021/05/01 03:27:44;;;;;;;49.40;42.58;;;10.20;99.90;;;;;;2080174;28;20025;-68
2021/05/01 03:28:45;;;;;;;49.45;42.70;;;10.30;99.90;;;;;;2080141;28;20034;-68
2021/05/01 03:29:45;;;;;;;51.33;41.70;;;10.20;99.90;;;;;;2080317;28;20029;-68
2021/05/01 03:30:46;;;;;;;45.67;40.67;;;10.30;99.90;;;;;;2079589;28;20053;-68
2021/05/01 03:31:46;;;;;;;42.97;38.15;;;10.30;99.90;;;;;;2079322;28;20033;-68
2021/05/01 03:32:47;;;;;;;41.38;36.88;;;10.30;99.90;;;;;;2071464;28;20022;-68
2021/05/01 03:33:48;;;;;;;43.70;38.78;;;10.30;99.90;;;;;;2078035;28;20021;-68
2021/05/01 03:34:48;;;;;;;51.03;41.50;;;10.30;99.90;;;;;;2081236;28;20029;-68
2021/05/01 03:35:49;;;;;;;46.92;41.17;;;10.30;99.90;;;;;;2080100;28;20029;-68
2021/05/01 03:36:49;;;;;;;46.60;40.85;;;10.30;99.90;;;;;;2080261;28;20038;-68
2021/05/01 03:37:50;;;;;;;44.78;38.60;;;10.30;99.90;;;;;;2080129;28;20398;-68
2021/05/01 03:38:51;;;;;;;49.90;41.53;;;10.30;99.90;;;;;;2080229;28;20064;-68
2021/05/01 03:39:51;;;;;;;47.65;41.17;;;10.40;99.90;;;;;;2075345;28;20445;-68
2021/05/01 03:40:53;;;;;;;47.72;39.70;;;10.40;99.90;;;;;;2072350;28;20378;-68
2021/05/01 03:41:54;;;;;;;45.90;39.50;;;10.40;99.90;;;;;;2087339;28;20025;-68
2021/05/01 03:42:55;;;;;;;46.63;41.17;;;10.40;99.90;;;;;;2087883;28;20021;-68
2021/05/01 03:43:55;;;;;;;47.92;40.45;;;10.40;99.90;;;;;;2088428;28;20083;-68
2021/05/01 03:44:56;;;;;;;38.45;34.55;;;10.40;99.90;;;;;;2088349;28;20381;-68
2021/05/01 03:45:58;;;;;;;37.00;32.78;;;10.40;99.90;;;;;;2088468;28;20021;-68
2021/05/01 03:46:59;;;;;;;43.22;36.63;;;10.40;99.90;;;;;;2088274;28;20033;-68
2021/05/01 03:47:59;;;;;;;40.97;35.92;;;10.40;99.90;;;;;;2083940;28;20025;-68
2021/05/01 03:49:00;;;;;;;34.97;31.35;;;10.40;99.90;;;;;;2076065;28;20105;-68
2021/05/01 03:50:00;;;;;;;37.45;33.03;;;10.40;99.90;;;;;;2080174;28;20090;-68
2021/05/01 03:51:03;;;;;;;35.75;29.50;;;10.40;99.90;;;;;;2080372;28;20026;-68
2021/05/01 03:52:04;;;;;;;46.92;38.33;;;10.40;99.90;;;;;;2080223;28;20104;-68
2021/05/01 03:53:05;;;;;;;44.85;39.00;;;10.40;99.90;;;;;;2079400;28;20022;-68
2021/05/01 03:54:06;;;;;;;42.53;36.97;;;10.40;99.90;;;;;;2081358;28;20476;-68
2021/05/01 03:55:08;;;;;;;33.80;30.15;;;10.30;99.90;;;;;;2087402;28;20075;-68
2021/05/01 03:56:08;;;;;;;38.65;33.90;;;10.30;99.90;;;;;;2083341;28;20052;-68
2021/05/01 03:57:09;;;;;;;38.05;31.55;;;10.30;99.90;;;;;;2080314;28;20029;-68
2021/05/01 03:58:09;;;;;;;35.20;31.50;;;10.30;99.90;;;;;;2080054;28;20279;-68
2021/05/01 03:59:13;;;;;;;37.85;33.65;;;10.30;99.90;;;;;;2079772;28;20443;-68
2021/05/01 04:00:14;;;;;;;46.05;38.47;;;10.30;99.90;;;;;;2080264;28;20026;-68
2021/05/01 04:01:15;;;;;;;44.30;37.72;;;10.30;99.90;;;;;;2079140;28;20746;-69
2021/05/01 04:02:16;;;;;;;45.85;40.40;;;10.30;99.90;;;;;;2078514;28;20025;-68
2021/05/01 04:03:16;;;;;;;49.35;42.30;;;10.30;99.90;;;;;;2079804;28;20055;-68
2021/05/01 04:04:19;;;;;;;50.83;39.95;;;10.30;99.90;;;;;;2080121;28;20044;-68
2021/05/01 04:05:20;;;;;;;45.08;40.17;;;10.20;99.90;;;;;;2079777;28;20025;-68
2021/05/01 04:06:21;;;;;;;45.22;39.78;;;10.20;99.90;;;;;;2080161;28;20028;-68
2021/05/01 04:07:22;;;;;;;45.90;39.13;;;10.30;99.90;;;;;;2083147;28;20039;-68
2021/05/01 04:08:22;;;;;;;47.72;39.17;;;10.20;99.90;;;;;;2082919;28;20028;-68
2021/05/01 04:09:23;;;;;;;47.78;40.45;;;10.30;99.90;;;;;;2079829;28;20022;-69
2021/05/01 04:10:23;;;;;;;48.65;40.70;;;10.20;99.90;;;;;;2080026;28;20021;-69
2021/05/01 04:11:24;;;;;;;47.40;40.75;;;10.20;99.90;;;;;;2079719;28;20029;-68
2021/05/01 04:12:25;;;;;;;48.75;43.22;;;10.30;99.90;;;;;;2083894;28;20021;-68
2021/05/01 04:13:26;;;;;;;43.70;37.97;;;10.20;99.90;;;;;;2088371;28;20365;-68
2021/05/01 04:14:27;;;;;;;48.25;41.90;;;10.20;99.90;;;;;;2088231;28;20024;-68
2021/05/01 04:15:28;;;;;;;50.15;42.42;;;10.20;99.90;;;;;;2087968;28;20037;-68
2021/05/01 04:16:29;;;;;;;50.47;42.85;;;10.30;99.90;;;;;;2088481;28;20544;-68
2021/05/01 04:17:29;;;;;;;52.10;42.47;;;10.20;99.90;;;;;;2087156;28;20029;-68
2021/05/01 04:18:30;;;;;;;49.80;43.15;;;10.20;99.90;;;;;;2087873;28;20037;-68
2021/05/01 04:19:30;;;;;;;48.58;42.00;;;10.20;99.90;;;;;;2088051;28;20388;-68
2021/05/01 04:20:31;;;;;;;49.97;42.35;;;10.20;99.90;;;;;;2088068;28;20036;-68
2021/05/01 04:21:31;;;;;;;52.63;43.33;;;10.20;99.90;;;;;;2088347;28;20480;-68
2021/05/01 04:22:32;;;;;;;46.90;40.85;;;10.20;99.90;;;;;;2084140;28;20033;-68
2021/05/01 04:23:33;;;;;;;52.22;43.88;;;10.10;99.90;;;;;;2079954;28;20044;-68
2021/05/01 04:24:35;;;;;;;52.33;43.50;;;10.10;99.90;;;;;;2079769;28;20037;-68
2021/05/01 04:25:37;;;;;;;43.92;39.20;;;10.10;99.90;;;;;;2079811;28;20140;-68
2021/05/01 04:26:38;;;;;;;45.95;40.63;;;10.10;99.90;;;;;;2080409;28;20030;-68
2021/05/01 04:27:40;;;;;;;44.97;40.17;;;10.10;99.90;;;;;;2079726;28;20079;-68
2021/05/01 04:28:41;;;;;;;52.63;40.65;;;10.20;99.90;;;;;;2079936;28;20029;-68
2021/05/01 04:29:41;;;;;;;45.45;40.25;;;10.10;99.90;;;;;;2080074;28;20029;-68
2021/05/01 04:30:42;;;;;;;45.80;40.55;;;10.20;99.90;;;;;;2079704;28;20033;-68
2021/05/01 04:31:42;;;;;;;49.92;40.85;;;10.20;99.90;;;;;;2079844;28;20026;-69
2021/05/01 04:32:43;;;;;;;43.88;39.20;;;10.20;99.90;;;;;;2079486;28;20121;-68
2021/05/01 04:33:43;;;;;;;47.30;42.00;;;10.20;99.90;;;;;;2079964;28;20028;-68
2021/05/01 04:34:44;;;;;;;47.95;42.13;;;10.10;99.90;;;;;;2079661;28;20021;-68
2021/05/01 04:35:45;;;;;;;49.30;41.45;;;10.20;99.90;;;;;;2079906;28;20055;-72
2021/05/01 04:36:45;;;;;;;52.05;40.95;;;10.10;99.90;;;;;;2078985;28;20030;-68
2021/05/01 04:37:46;;;;;;;49.78;42.20;;;10.20;99.90;;;;;;2079282;28;20040;-68
2021/05/01 04:38:46;;;;;;;46.95;41.50;;;10.10;99.90;;;;;;2079943;28;20496;-68
2021/05/01 04:39:47;;;;;;;48.75;39.72;;;10.10;99.90;;;;;;2079203;28;20030;-68
2021/05/01 04:40:48;;;;;;;44.60;39.17;;;10.10;99.90;;;;;;2079487;28;20578;-68
2021/05/01 04:41:49;;;;;;;46.60;40.08;;;10.10;99.90;;;;;;2080130;28;20448;-68
2021/05/01 04:42:52;;;;;;;45.25;38.33;;;10.10;99.90;;;;;;2078869;28;20033;-68
2021/05/01 04:43:53;;;;;;;43.90;38.20;;;10.10;99.90;;;;;;2080051;28;20037;-68
2021/05/01 04:44:53;;;;;;;41.47;36.05;;;10.10;99.90;;;;;;2079865;28;20028;-68
2021/05/01 04:45:55;;;;;;;42.35;36.42;;;10.10;99.90;;;;;;2080512;28;20029;-68
2021/05/01 04:46:56;;;;;;;43.47;36.40;;;10.00;99.90;;;;;;2087856;28;20035;-68
2021/05/01 04:47:56;;;;;;;43.53;35.88;;;10.00;99.90;;;;;;2087989;28;20029;-68
2021/05/01 04:48:57;;;;;;;40.67;33.20;;;10.00;99.90;;;;;;2088147;28;20415;-68
2021/05/01 04:49:57;;;;;;;39.67;33.10;;;10.00;99.90;;;;;;2088227;28;20071;-68
2021/05/01 04:50:58;;;;;;;40.72;34.00;;;10.00;99.90;;;;;;2087142;28;20029;-68
2021/05/01 04:52:00;;;;;;;36.50;31.23;;;10.00;99.90;;;;;;2079942;28;20032;-68
2021/05/01 04:53:01;;;;;;;38.42;33.50;;;10.00;99.90;;;;;;2078832;28;20398;-68
2021/05/01 04:54:03;;;;;;;41.95;32.97;;;10.00;99.90;;;;;;2079917;28;20018;-68
2021/05/01 04:55:12;;;;;;;39.03;32.38;;;10.00;99.90;;;;;;2081646;28;20124;-68
2021/05/01 04:56:13;;;;;;;40.90;34.65;;;10.00;99.90;;;;;;2082268;28;20029;-68
2021/05/01 04:57:14;;;;;;;37.72;32.47;;;10.00;99.90;;;;;;2079939;28;20053;-68
2021/05/01 04:58:15;;;;;;;43.58;33.75;;;9.90;99.90;;;;;;2079775;28;20024;-68
2021/05/01 04:59:15;;;;;;;51.22;33.35;;;9.90;99.90;;;;;;2079663;28;20025;-68
2021/05/01 05:00:17;;;;;;;39.63;31.67;;;9.90;99.90;;;;;;2079301;28;20037;-68
2021/05/01 05:01:17;;;;;;;38.78;31.63;;;9.90;99.90;;;;;;2079684;28;20140;-68
2021/05/01 05:02:18;;;;;;;38.75;31.88;;;9.90;99.90;;;;;;2079220;28;20026;-68
2021/05/01 05:03:19;;;;;;;38.88;31.80;;;9.90;99.90;;;;;;2079769;28;20021;-68
2021/05/01 05:04:19;;;;;;;38.65;32.03;;;9.90;99.90;;;;;;2079637;28;20056;-68
2021/05/01 05:05:20;;;;;;;38.67;32.10;;;9.90;99.90;;;;;;2079737;28;20408;-68
2021/05/01 05:06:21;;;;;;;34.30;30.45;;;9.90;99.90;;;;;;2079729;28;20056;-68
2021/05/01 05:07:21;;;;;;;35.90;30.95;;;9.90;99.90;;;;;;2083076;28;20032;-68
2021/05/01 05:08:22;;;;;;;35.92;30.60;;;9.90;99.90;;;;;;2087308;28;20009;-68
2021/05/01 05:09:22;;;;;;;36.95;29.30;;;9.90;99.90;;;;;;2087588;28;20044;-68
2021/05/01 05:10:23;;;;;;;33.45;29.73;;;9.90;99.90;;;;;;2087923;28;20083;-68